createdAt,value
2023-01-25T00:01:28.999Z,19.58
2023-01-25T00:06:33.532Z,18.75
2023-01-25T00:11:37.635Z,18.42
2023-01-25T00:16:41.037Z,20.05
2023-01-25T00:21:45.721Z,19.42
2023-01-25T00:26:48.864Z,20.55
2023-01-25T00:32:03.342Z,20.58
2023-01-25T00:37:14.507Z,19.02
2023-01-25T00:42:19.411Z,19.80
2023-01-25T00:47:22.546Z,19.98
2023-01-25T00:52:28.626Z,19.58
2023-01-25T00:57:33.148Z,20.23
2023-01-25T01:02:36.222Z,19.50
2023-01-25T01:07:40.724Z,19.30
2023-01-25T01:12:43.802Z,18.80
2023-01-25T01:17:47.289Z,18.65
2023-01-25T01:22:55.203Z,19.40
2023-01-25T01:27:58.268Z,19.25
2023-01-25T01:33:01.344Z,19.60
2023-01-25T01:38:07.058Z,20.40
2023-01-25T01:43:17.107Z,19.88
2023-01-25T01:48:22.033Z,19.73
2023-01-25T01:53:27.247Z,20.75
2023-01-25T01:58:31.248Z,20.40
2023-01-25T02:03:34.386Z,19.98
2023-01-25T02:08:40.887Z,20.13
2023-01-25T02:13:44.900Z,19.77
2023-01-25T02:18:52.561Z,20.10
2023-01-25T02:24:01.055Z,21.60
2023-01-25T02:29:06.513Z,20.52
2023-01-25T02:34:09.637Z,22.73
2023-01-25T02:39:20.086Z,20.08
2023-01-25T02:44:27.471Z,22.00
2023-01-25T02:49:30.601Z,21.23
2023-01-25T02:54:33.699Z,20.67
2023-01-25T02:59:41.387Z,22.65
2023-01-25T03:04:45.080Z,21.83
2023-01-25T03:09:48.619Z,21.35
2023-01-25T03:14:53.168Z,21.40
2023-01-25T03:19:56.610Z,22.48
2023-01-25T03:25:00.792Z,22.20
2023-01-25T03:30:06.974Z,22.85
2023-01-25T03:35:10.598Z,23.13
2023-01-25T03:40:14.271Z,22.00
2023-01-25T03:45:24.065Z,22.40
2023-01-25T03:50:27.319Z,23.77
2023-01-25T03:55:30.707Z,23.48
2023-01-25T04:00:35.394Z,24.48
2023-01-25T04:05:38.702Z,24.02
2023-01-25T04:10:42.023Z,25.55
2023-01-25T04:15:46.922Z,26.08
2023-01-25T04:21:00.643Z,24.20
2023-01-25T04:26:05.325Z,24.17
2023-01-25T04:31:11.338Z,25.75
2023-01-25T04:36:16.902Z,26.23
2023-01-25T04:41:20.768Z,23.73
2023-01-25T04:46:25.218Z,26.55
2023-01-25T04:51:30.125Z,27.15
2023-01-25T04:56:35.534Z,28.98
2023-01-25T05:01:40.316Z,26.35
2023-01-25T05:06:43.861Z,26.05
2023-01-25T05:11:47.900Z,27.00
2023-01-25T05:17:03.531Z,26.77
2023-01-25T05:22:11.502Z,25.08
2023-01-25T05:27:21.199Z,26.73
2023-01-25T05:32:31.655Z,25.87
2023-01-25T05:37:35.017Z,25.48
2023-01-25T05:42:41.956Z,24.42
2023-01-25T05:47:57.275Z,18.77
2023-01-25T05:53:00.621Z,24.30
2023-01-25T05:58:05.223Z,26.42
2023-01-25T06:03:10.285Z,27.05
2023-01-25T06:08:15.228Z,25.60
2023-01-25T06:13:25.359Z,27.13
2023-01-25T06:18:31.450Z,24.98
2023-01-25T06:23:53.159Z,25.60
2023-01-25T06:28:56.299Z,27.80
2023-01-25T06:34:04.507Z,29.23
2023-01-25T06:39:08.321Z,28.70
2023-01-25T06:44:11.399Z,29.17
2023-01-25T06:49:15.915Z,31.05
2023-01-25T06:54:18.960Z,29.25
2023-01-25T06:59:22.110Z,30.55
2023-01-25T07:04:26.581Z,27.30
2023-01-25T07:09:29.742Z,29.25
2023-01-25T07:14:32.876Z,31.75
2023-01-25T07:19:37.387Z,27.35
2023-01-25T07:24:40.812Z,29.98
2023-01-25T07:29:44.214Z,30.50
2023-01-25T07:34:49.122Z,31.00
2023-01-25T07:39:52.484Z,29.23
2023-01-25T07:44:55.737Z,31.27
2023-01-25T07:50:00.518Z,31.17
2023-01-25T07:55:04.003Z,30.88
2023-01-25T08:00:09.985Z,29.50
2023-01-25T08:05:17.007Z,29.02
2023-01-25T08:10:20.438Z,30.10
2023-01-25T08:15:23.672Z,31.48
2023-01-25T08:20:28.546Z,31.05
2023-01-25T08:25:31.971Z,31.63
2023-01-25T08:30:35.979Z,30.50
2023-01-25T08:35:40.831Z,29.02
2023-01-25T08:40:45.336Z,31.50
2023-01-25T08:45:49.373Z,32.10
2023-01-25T08:50:53.984Z,29.88
2023-01-25T08:55:57.261Z,28.80
2023-01-25T09:01:04.614Z,28.83
2023-01-25T09:06:10.012Z,32.90
2023-01-25T09:11:14.228Z,31.73
2023-01-25T09:16:20.960Z,34.05
2023-01-25T09:21:26.034Z,30.20
2023-01-25T09:26:30.745Z,32.97
2023-01-25T09:31:35.238Z,32.40
2023-01-25T09:36:48.949Z,31.35
2023-01-25T09:42:14.888Z,32.38
2023-01-25T09:47:21.845Z,32.92
2023-01-25T09:52:34.157Z,34.10
2023-01-25T09:57:38.872Z,32.70
2023-01-25T10:02:47.607Z,32.20
2023-01-25T10:07:58.073Z,32.58
2023-01-25T10:13:03.113Z,30.73
2023-01-25T10:18:11.588Z,32.03
2023-01-25T10:23:36.169Z,32.80
2023-01-25T10:28:43.754Z,30.48
2023-01-25T10:33:47.884Z,31.70
2023-01-25T10:38:57.701Z,32.78
2023-01-25T10:44:16.077Z,33.30
2023-01-25T10:49:23.740Z,31.98
2023-01-25T10:54:28.782Z,36.78
2023-01-25T10:59:36.170Z,34.17
2023-01-25T11:04:40.299Z,34.38
2023-01-25T11:09:43.787Z,33.53
2023-01-25T11:14:50.910Z,35.30
2023-01-25T11:20:09.336Z,36.42
2023-01-25T11:25:27.043Z,37.15
2023-01-25T11:30:31.932Z,33.67
2023-01-25T11:35:36.612Z,35.47
2023-01-25T11:40:42.794Z,36.03
2023-01-25T11:45:56.646Z,32.53
2023-01-25T11:51:03.637Z,35.85
2023-01-25T11:56:12.602Z,36.13
2023-01-25T12:01:22.142Z,36.50
2023-01-25T12:06:31.364Z,34.88
2023-01-25T12:11:40.526Z,33.88
2023-01-25T12:16:50.124Z,34.70
2023-01-25T12:21:59.047Z,33.47
2023-01-25T12:27:08.778Z,35.10
2023-01-25T12:32:15.539Z,35.75
2023-01-25T12:37:21.180Z,35.55
2023-01-25T12:42:26.596Z,35.72
2023-01-25T12:47:36.223Z,36.00
2023-01-25T12:52:42.413Z,37.72
2023-01-25T12:57:50.139Z,38.50
2023-01-25T13:03:09.005Z,39.97
2023-01-25T13:08:31.169Z,38.80
2023-01-25T13:13:35.984Z,36.80
2023-01-25T13:18:43.745Z,40.67
2023-01-25T13:23:47.925Z,37.45
2023-01-25T13:28:51.777Z,40.50
2023-01-25T13:33:57.635Z,37.25
2023-01-25T13:39:03.615Z,36.85
2023-01-25T13:44:21.367Z,38.50
2023-01-25T13:49:32.102Z,35.10
2023-01-25T13:54:43.732Z,36.28
2023-01-25T13:59:47.383Z,37.35
2023-01-25T14:04:53.005Z,40.33
2023-01-25T14:09:57.360Z,45.97
2023-01-25T14:15:11.948Z,41.55
2023-01-25T14:20:21.503Z,39.53
2023-01-25T14:25:25.977Z,38.25
2023-01-25T14:30:30.498Z,39.63
2023-01-25T14:35:54.299Z,40.08
2023-01-25T14:41:00.467Z,37.50
2023-01-25T14:46:18.736Z,39.65
2023-01-25T14:51:28.757Z,40.10
2023-01-25T14:56:34.412Z,30.83
2023-01-25T15:01:39.490Z,38.58
2023-01-25T15:06:51.153Z,44.28
2023-01-25T15:11:59.949Z,45.35
2023-01-25T15:17:03.268Z,39.95
2023-01-25T15:22:09.345Z,40.75
2023-01-25T15:27:13.032Z,42.28
2023-01-25T15:32:20.747Z,39.85
2023-01-25T15:37:25.446Z,39.33
2023-01-25T15:42:28.968Z,39.17
2023-01-25T15:47:32.516Z,40.78
2023-01-25T15:52:37.282Z,38.33
2023-01-25T15:57:40.841Z,38.13
2023-01-25T16:02:44.108Z,35.33
2023-01-25T16:07:48.612Z,37.70
2023-01-25T16:12:52.144Z,36.63
2023-01-25T16:17:55.549Z,40.13
2023-01-25T16:23:01.295Z,39.72
2023-01-25T16:28:04.571Z,40.70
2023-01-25T16:33:07.805Z,41.80
2023-01-25T16:38:13.615Z,39.80
2023-01-25T16:43:17.013Z,39.20
2023-01-25T16:48:21.384Z,38.45
2023-01-25T16:53:25.915Z,40.28
2023-01-25T16:58:29.147Z,43.30
2023-01-25T17:03:32.413Z,40.63
2023-01-25T17:08:37.085Z,39.92
2023-01-25T17:13:40.152Z,40.03
2023-01-25T17:18:43.388Z,39.78
2023-01-25T17:23:48.375Z,41.15
2023-01-25T17:28:52.449Z,38.47
2023-01-25T17:33:56.179Z,36.40
2023-01-25T17:39:05.107Z,38.05
2023-01-25T17:44:08.668Z,35.63
2023-01-25T17:49:13.152Z,35.35
2023-01-25T17:54:17.898Z,33.53
2023-01-25T17:59:22.004Z,34.22
2023-01-25T18:04:25.556Z,33.83
2023-01-25T18:09:31.622Z,30.63
2023-01-25T18:14:35.318Z,35.15
2023-01-25T18:19:38.867Z,34.35
2023-01-25T18:24:44.872Z,33.97
2023-01-25T18:29:50.400Z,32.42
2023-01-25T18:34:53.830Z,35.22
2023-01-25T18:39:58.675Z,33.20
2023-01-25T18:45:01.796Z,33.47
2023-01-25T18:50:05.481Z,33.67
2023-01-25T18:55:10.896Z,34.42
2023-01-25T19:00:15.113Z,35.53
2023-01-25T19:05:20.243Z,38.40
2023-01-25T19:10:24.940Z,38.05
2023-01-25T19:15:28.389Z,37.20
2023-01-25T19:20:31.689Z,38.20
2023-01-25T19:25:36.282Z,38.22
2023-01-25T19:30:39.601Z,40.00
2023-01-25T19:35:43.049Z,41.22
2023-01-25T19:40:47.842Z,40.70
2023-01-25T19:45:51.557Z,37.53
2023-01-25T19:50:54.766Z,36.80
2023-01-25T19:56:03.722Z,41.00
2023-01-25T20:01:07.997Z,45.00
2023-01-25T20:06:12.005Z,39.78
2023-01-25T20:11:20.061Z,39.35
2023-01-25T20:16:23.683Z,38.33
2023-01-25T20:21:27.782Z,37.30
2023-01-25T20:26:33.861Z,42.97
2023-01-25T20:31:37.923Z,44.70
2023-01-25T20:36:42.311Z,40.55
2023-01-25T20:41:47.686Z,41.85
2023-01-25T20:46:52.690Z,46.90
2023-01-25T20:51:55.973Z,43.72
2023-01-25T20:57:00.753Z,44.08
2023-01-25T21:02:03.911Z,43.53
2023-01-25T21:07:07.216Z,43.50
2023-01-25T21:12:12.040Z,53.60
2023-01-25T21:17:15.516Z,45.83
2023-01-25T21:22:19.529Z,46.80
2023-01-25T21:27:29.810Z,43.78
2023-01-25T21:32:33.327Z,33.67
2023-01-25T21:37:36.642Z,43.67
2023-01-25T21:42:41.123Z,44.88
2023-01-25T21:47:44.391Z,45.25
2023-01-25T21:52:47.671Z,42.58
2023-01-25T21:57:52.479Z,44.72
2023-01-25T22:02:55.722Z,42.00
2023-01-25T22:07:59.591Z,43.50
2023-01-25T22:13:04.168Z,45.25
2023-01-25T22:18:07.568Z,43.90
2023-01-25T22:23:10.842Z,43.65
2023-01-25T22:28:15.918Z,42.70
2023-01-25T22:33:21.615Z,47.70
2023-01-25T22:38:25.093Z,42.45
2023-01-25T22:43:29.718Z,41.92
2023-01-25T22:48:33.508Z,42.30
2023-01-25T22:53:36.868Z,41.20
2023-01-25T22:58:42.461Z,41.67
2023-01-25T23:03:45.791Z,45.65
2023-01-25T23:08:49.159Z,43.92
2023-01-25T23:14:12.112Z,42.03
2023-01-25T23:19:15.382Z,41.42
2023-01-25T23:24:18.517Z,39.90
2023-01-25T23:29:23.007Z,36.33
2023-01-25T23:34:26.228Z,37.15
2023-01-25T23:39:29.361Z,37.90
2023-01-25T23:44:33.901Z,38.58
2023-01-25T23:49:37.250Z,40.25
2023-01-25T23:54:40.351Z,40.97
2023-01-25T23:59:44.886Z,36.97
